createdAt,value
2023-08-07T00:03:45.110Z,4.20
2023-08-07T00:08:49.380Z,4.30
2023-08-07T00:13:50.589Z,2.90
2023-08-07T00:19:03.246Z,3.20
2023-08-07T00:24:09.060Z,3.60
2023-08-07T00:29:10.453Z,1.80
2023-08-07T00:34:12.462Z,1.40
2023-08-07T00:39:13.829Z,2.70
2023-08-07T00:44:15.075Z,3.00
2023-08-07T00:49:22.172Z,2.10
2023-08-07T00:54:25.676Z,2.30
2023-08-07T00:59:35.586Z,2.00
2023-08-07T01:04:36.929Z,2.00
2023-08-07T01:09:38.774Z,4.20
2023-08-07T01:15:24.615Z,2.10
2023-08-07T01:20:29.062Z,3.20
2023-08-07T01:25:33.992Z,3.40
2023-08-07T01:30:45.041Z,3.60
2023-08-07T01:35:56.078Z,6.20
2023-08-07T01:40:59.000Z,7.60
2023-08-07T01:46:00.317Z,5.60
2023-08-07T01:51:01.738Z,6.50
2023-08-07T01:56:07.379Z,10.10
2023-08-07T02:01:08.655Z,7.40
2023-08-07T02:06:11.976Z,6.70
2023-08-07T02:11:15.018Z,5.80
2023-08-07T02:16:16.294Z,3.50
2023-08-07T02:21:19.588Z,3.70
2023-08-07T02:26:20.902Z,2.70
2023-08-07T02:31:25.160Z,4.70
2023-08-07T02:36:35.430Z,3.70
2023-08-07T02:41:36.633Z,3.20
2023-08-07T02:46:37.854Z,4.60
2023-08-07T02:51:39.119Z,3.30
2023-08-07T02:56:41.557Z,3.70
2023-08-07T03:01:51.944Z,5.90
2023-08-07T03:06:56.112Z,6.40
2023-08-07T03:12:03.414Z,6.60
2023-08-07T03:17:05.823Z,6.70
2023-08-07T03:22:07.087Z,6.60
2023-08-07T03:27:08.428Z,5.80
2023-08-07T03:32:11.742Z,10.10
2023-08-07T03:37:15.686Z,6.10
2023-08-07T03:42:17.118Z,7.70
2023-08-07T03:47:21.240Z,7.10
2023-08-07T03:52:24.802Z,7.90
2023-08-07T03:57:27.455Z,5.50
2023-08-07T04:02:29.740Z,5.10
2023-08-07T04:07:32.891Z,4.60
2023-08-07T04:12:34.423Z,7.00
2023-08-07T04:17:36.921Z,7.60
2023-08-07T04:22:38.940Z,7.80
2023-08-07T04:27:41.865Z,9.70
2023-08-07T04:32:43.068Z,11.90
2023-08-07T04:37:45.551Z,9.20
2023-08-07T04:42:46.845Z,10.50
2023-08-07T04:47:48.282Z,6.90
2023-08-07T04:52:49.628Z,11.20
2023-08-07T04:57:54.572Z,10.00
2023-08-07T05:02:56.088Z,8.30
2023-08-07T05:07:59.580Z,10.50
2023-08-07T05:13:03.692Z,6.70
2023-08-07T05:18:04.924Z,8.20
2023-08-07T05:23:17.985Z,8.40
2023-08-07T05:28:19.289Z,6.50
2023-08-07T05:33:20.851Z,8.30
2023-08-07T05:38:22.352Z,6.70
2023-08-07T05:43:23.769Z,8.00
2023-08-07T05:48:25.475Z,5.20
2023-08-07T05:53:26.811Z,4.80
2023-08-07T05:58:28.246Z,7.20
2023-08-07T06:03:29.613Z,5.90
2023-08-07T06:08:30.966Z,5.60
2023-08-07T06:13:36.523Z,7.70
2023-08-07T06:18:38.647Z,6.40
2023-08-07T06:23:43.015Z,4.90
2023-08-07T06:30:02.439Z,6.80
2023-08-07T06:36:31.071Z,3.70
2023-08-07T06:41:32.524Z,8.70
2023-08-07T06:46:34.935Z,7.50
2023-08-07T06:51:38.534Z,8.00
2023-08-07T06:56:44.530Z,7.40
2023-08-07T07:14:42.028Z,7.30
2023-08-07T07:19:43.369Z,6.10
2023-08-07T07:24:44.645Z,7.00
2023-08-07T07:29:49.127Z,11.20
2023-08-07T07:36:02.102Z,8.50
2023-08-07T07:46:56.409Z,4.90
2023-08-07T07:51:57.942Z,5.80
2023-08-07T07:56:59.538Z,6.10
2023-08-07T08:02:07.268Z,5.40
2023-08-07T08:07:13.070Z,5.90
2023-08-07T08:12:20.234Z,5.60
2023-08-07T08:17:21.590Z,7.10
2023-08-07T08:22:27.374Z,4.60
2023-08-07T08:27:32.237Z,5.30
2023-08-07T08:32:33.988Z,5.60
2023-08-07T08:37:36.939Z,7.00
2023-08-07T08:44:15.124Z,4.80
2023-08-07T08:49:32.913Z,5.30
2023-08-07T08:54:35.579Z,6.60
2023-08-07T08:59:39.021Z,5.80
2023-08-07T09:04:42.547Z,6.20
2023-08-07T09:09:45.497Z,4.90
2023-08-07T09:14:55.947Z,6.90
2023-08-07T09:19:58.528Z,5.00
2023-08-07T09:25:00.575Z,4.10
2023-08-07T09:30:03.048Z,4.60
2023-08-07T09:35:27.494Z,4.70
2023-08-07T09:40:58.718Z,3.70
2023-08-07T09:46:20.116Z,5.30
2023-08-07T09:51:21.957Z,5.60
2023-08-07T09:56:25.682Z,4.80
2023-08-07T10:01:26.961Z,6.50
2023-08-07T10:06:28.600Z,5.20
2023-08-07T10:11:33.426Z,4.60
2023-08-07T10:16:41.658Z,4.20
2023-08-07T10:21:44.146Z,4.80
2023-08-07T10:26:56.916Z,5.20
2023-08-07T10:32:04.022Z,6.60
2023-08-07T10:37:10.419Z,6.60
2023-08-07T10:42:12.506Z,10.60
2023-08-07T10:47:13.731Z,7.20
2023-08-07T10:52:15.946Z,5.20
2023-08-07T10:57:26.235Z,5.20
2023-08-07T11:02:30.811Z,6.00
2023-08-07T11:07:32.390Z,4.70
2023-08-07T11:12:33.744Z,4.40
2023-08-07T11:17:35.084Z,7.00
2023-08-07T11:22:45.532Z,4.40
2023-08-07T11:27:47.080Z,5.80
2023-08-07T11:32:58.264Z,5.30
2023-08-07T11:38:08.527Z,4.60
2023-08-07T11:43:12.674Z,6.10
2023-08-07T11:48:13.953Z,5.90
2023-08-07T11:53:18.713Z,5.20
2023-08-07T11:58:21.118Z,5.90
2023-08-07T12:03:34.445Z,5.20
2023-08-07T12:08:42.851Z,5.60
2023-08-07T12:13:46.071Z,6.50
2023-08-07T12:18:50.137Z,5.00
2023-08-07T12:23:55.059Z,6.30
2023-08-07T12:28:56.427Z,4.40
2023-08-07T12:39:22.112Z,4.00
2023-08-07T12:44:27.297Z,4.10
2023-08-07T12:49:32.637Z,5.70
2023-08-07T12:54:35.283Z,4.40
2023-08-07T12:59:36.511Z,5.30
2023-08-07T13:04:37.852Z,5.20
2023-08-07T13:09:39.143Z,5.30
2023-08-07T13:14:40.320Z,6.10
2023-08-07T13:19:42.002Z,7.00
2023-08-07T13:24:43.728Z,6.00
2023-08-07T13:29:48.577Z,6.60
2023-08-07T13:34:51.463Z,5.90
2023-08-07T13:39:54.819Z,4.80
2023-08-07T13:44:56.575Z,5.70
2023-08-07T13:50:00.521Z,4.50
2023-08-07T13:55:01.860Z,4.70
2023-08-07T14:00:18.430Z,5.40
2023-08-07T14:05:24.223Z,4.80
2023-08-07T14:10:25.667Z,7.20
2023-08-07T14:15:27.591Z,4.80
2023-08-07T14:20:29.148Z,5.10
2023-08-07T14:25:33.074Z,4.50
2023-08-07T14:30:36.435Z,4.80
2023-08-07T14:35:39.846Z,4.90
2023-08-07T14:40:42.761Z,7.70
2023-08-07T14:45:45.624Z,4.20
2023-08-07T14:50:47.081Z,6.20
2023-08-07T14:55:48.355Z,7.00
2023-08-07T15:00:50.707Z,5.40
2023-08-07T15:05:59.644Z,4.80
2023-08-07T15:11:06.017Z,4.20
2023-08-07T15:16:13.516Z,4.50
2023-08-07T15:21:16.119Z,4.60
2023-08-07T15:26:17.527Z,5.80
2023-08-07T15:31:19.134Z,5.20
2023-08-07T15:36:25.218Z,5.90
2023-08-07T15:41:33.593Z,4.70
2023-08-07T15:46:35.495Z,7.10
2023-08-07T15:51:36.804Z,6.00
2023-08-07T15:56:38.044Z,7.30
2023-08-07T16:01:42.019Z,5.70
2023-08-07T16:06:46.940Z,5.10
2023-08-07T16:11:48.830Z,4.30
2023-08-07T16:16:52.520Z,5.90
2023-08-07T16:21:56.482Z,6.60
2023-08-07T16:26:58.095Z,6.50
2023-08-07T16:32:06.610Z,3.90
2023-08-07T16:37:07.948Z,5.30
2023-08-07T16:42:09.297Z,5.00
2023-08-07T16:47:10.612Z,5.40
2023-08-07T16:52:12.039Z,5.10
2023-08-07T16:57:14.501Z,5.60
2023-08-07T17:02:16.188Z,5.60
2023-08-07T17:07:17.581Z,5.40
2023-08-07T17:12:20.221Z,5.30
2023-08-07T17:17:24.651Z,6.70
2023-08-07T17:22:25.959Z,4.90
2023-08-07T17:27:30.377Z,7.10
2023-08-07T17:32:39.132Z,8.30
2023-08-07T17:37:40.393Z,8.70
2023-08-07T17:42:46.162Z,8.80
2023-08-07T17:47:47.864Z,5.30
2023-08-07T17:52:52.924Z,6.40
2023-08-07T17:57:54.726Z,6.20
2023-08-07T18:02:56.143Z,6.60
2023-08-07T18:07:57.733Z,6.40
2023-08-07T18:13:00.183Z,5.40
2023-08-07T18:18:01.471Z,5.50
2023-08-07T18:23:05.262Z,7.10
2023-08-07T18:28:09.586Z,8.90
2023-08-07T18:33:14.809Z,9.70
2023-08-07T18:38:16.908Z,10.20
2023-08-07T18:43:20.745Z,6.60
2023-08-07T18:48:24.164Z,8.60
2023-08-07T18:53:28.143Z,8.30
2023-08-07T18:59:09.349Z,7.30
2023-08-07T19:05:26.144Z,7.50
2023-08-07T19:10:29.406Z,6.50
2023-08-07T19:16:55.434Z,6.50
2023-08-07T19:35:29.177Z,7.00
2023-08-07T19:40:34.473Z,6.50
2023-08-07T19:45:37.212Z,6.40
2023-08-07T19:50:39.954Z,6.90
2023-08-07T19:55:45.039Z,7.10
2023-08-07T20:00:49.713Z,5.80
2023-08-07T20:06:00.264Z,7.90
2023-08-07T20:11:05.525Z,5.30
2023-08-07T20:16:08.237Z,5.60
2023-08-07T20:21:15.763Z,7.40
2023-08-07T20:26:22.084Z,8.30
2023-08-07T20:31:28.015Z,9.10
2023-08-07T20:36:33.400Z,11.20
2023-08-07T20:41:36.078Z,8.10
2023-08-07T20:46:38.873Z,6.50
2023-08-07T20:51:41.619Z,9.80
2023-08-07T20:56:45.538Z,8.70
2023-08-07T21:21:30.342Z,7.70
2023-08-07T21:26:34.891Z,7.80
2023-08-07T21:31:37.871Z,8.20
2023-08-07T21:36:40.552Z,7.00
2023-08-07T21:41:43.284Z,7.90
2023-08-07T21:46:46.081Z,6.70
2023-08-07T21:51:50.747Z,6.70
2023-08-07T21:56:53.522Z,7.10
2023-08-07T22:01:59.407Z,8.70
2023-08-07T22:07:02.621Z,6.80
2023-08-07T22:12:06.502Z,7.60
2023-08-07T22:17:09.139Z,7.00
2023-08-07T22:22:28.314Z,6.50
2023-08-07T22:27:33.874Z,6.30
2023-08-07T22:32:37.240Z,6.60
2023-08-07T22:37:40.292Z,6.90
2023-08-07T22:42:42.991Z,6.40
2023-08-07T22:47:48.592Z,7.70
2023-08-07T22:52:51.311Z,6.60
2023-08-07T22:57:54.012Z,8.40
2023-08-07T23:04:21.013Z,7.20
2023-08-07T23:09:50.032Z,8.00
2023-08-07T23:26:54.130Z,10.90
2023-08-07T23:32:21.895Z,6.50
2023-08-07T23:38:02.921Z,7.10
2023-08-07T23:43:19.536Z,6.50
2023-08-07T23:49:03.689Z,8.10
2023-08-07T23:55:09.584Z,8.70
